sensor_id;sensor_type;location;lat;lon;timestamp;P1;durP1;ratioP1;P2;durP2;ratioP2
59876;SDS011;74472;51.140;17.184;2024-02-15T00:00:11;74.00;;;34.63;;
59876;SDS011;74472;51.140;17.184;2024-02-15T00:02:37;67.38;;;32.60;;
59876;SDS011;74472;51.140;17.184;2024-02-15T00:05:02;44.83;;;25.80;;
59876;SDS011;74472;51.140;17.184;2024-02-15T00:07:28;46.35;;;25.27;;
59876;SDS011;74472;51.140;17.184;2024-02-15T00:09:53;42.30;;;23.75;;
59876;SDS011;74472;51.140;17.184;2024-02-15T00:12:19;38.92;;;22.60;;
59876;SDS011;74472;51.140;17.184;2024-02-15T00:14:45;36.83;;;20.77;;
59876;SDS011;74472;51.140;17.184;2024-02-15T00:17:10;36.03;;;21.95;;
59876;SDS011;74472;51.140;17.184;2024-02-15T00:19:36;31.80;;;20.08;;
59876;SDS011;74472;51.140;17.184;2024-02-15T00:22:03;31.77;;;19.15;;
59876;SDS011;74472;51.140;17.184;2024-02-15T00:24:29;37.17;;;22.52;;
59876;SDS011;74472;51.140;17.184;2024-02-15T00:26:55;32.63;;;18.75;;
59876;SDS011;74472;51.140;17.184;2024-02-15T00:29:21;53.13;;;30.30;;
59876;SDS011;74472;51.140;17.184;2024-02-15T00:31:46;72.32;;;39.15;;
59876;SDS011;74472;51.140;17.184;2024-02-15T00:34:12;60.20;;;34.25;;
59876;SDS011;74472;51.140;17.184;2024-02-15T00:36:37;60.08;;;35.20;;
59876;SDS011;74472;51.140;17.184;2024-02-15T00:39:02;57.22;;;32.17;;
59876;SDS011;74472;51.140;17.184;2024-02-15T00:41:31;42.50;;;26.25;;
59876;SDS011;74472;51.140;17.184;2024-02-15T00:43:58;35.33;;;21.30;;
59876;SDS011;74472;51.140;17.184;2024-02-15T00:46:25;56.08;;;24.83;;
59876;SDS011;74472;51.140;17.184;2024-02-15T00:48:54;44.72;;;23.27;;
59876;SDS011;74472;51.140;17.184;2024-02-15T00:51:19;28.63;;;18.35;;
59876;SDS011;74472;51.140;17.184;2024-02-15T00:53:45;25.58;;;16.63;;
59876;SDS011;74472;51.140;17.184;2024-02-15T00:56:10;27.52;;;16.90;;
59876;SDS011;74472;51.140;17.184;2024-02-15T00:58:36;23.20;;;17.55;;
59876;SDS011;74472;51.140;17.184;2024-02-15T01:01:01;30.77;;;18.27;;
59876;SDS011;74472;51.140;17.184;2024-02-15T01:03:27;28.13;;;17.55;;
59876;SDS011;74472;51.140;17.184;2024-02-15T01:05:52;28.83;;;17.30;;
59876;SDS011;74472;51.140;17.184;2024-02-15T01:08:17;27.90;;;18.30;;
59876;SDS011;74472;51.140;17.184;2024-02-15T01:10:43;25.77;;;17.10;;
59876;SDS011;74472;51.140;17.184;2024-02-15T01:13:08;25.35;;;15.20;;
59876;SDS011;74472;51.140;17.184;2024-02-15T01:15:34;28.60;;;15.68;;
59876;SDS011;74472;51.140;17.184;2024-02-15T01:18:02;21.58;;;13.60;;
59876;SDS011;74472;51.140;17.184;2024-02-15T01:20:28;25.75;;;14.07;;
59876;SDS011;74472;51.140;17.184;2024-02-15T01:22:53;20.27;;;12.90;;
59876;SDS011;74472;51.140;17.184;2024-02-15T01:25:19;24.92;;;13.73;;
59876;SDS011;74472;51.140;17.184;2024-02-15T01:27:45;22.17;;;12.35;;
59876;SDS011;74472;51.140;17.184;2024-02-15T01:30:10;18.52;;;11.82;;
59876;SDS011;74472;51.140;17.184;2024-02-15T01:32:36;18.70;;;12.43;;
59876;SDS011;74472;51.140;17.184;2024-02-15T01:35:02;20.27;;;13.25;;
59876;SDS011;74472;51.140;17.184;2024-02-15T01:37:27;17.25;;;12.25;;
59876;SDS011;74472;51.140;17.184;2024-02-15T01:39:53;17.08;;;11.70;;
59876;SDS011;74472;51.140;17.184;2024-02-15T01:42:18;18.67;;;12.55;;
59876;SDS011;74472;51.140;17.184;2024-02-15T01:44:43;19.75;;;12.88;;
59876;SDS011;74472;51.140;17.184;2024-02-15T01:47:09;20.50;;;13.50;;
59876;SDS011;74472;51.140;17.184;2024-02-15T01:49:35;22.52;;;14.00;;
59876;SDS011;74472;51.140;17.184;2024-02-15T01:52:01;19.55;;;12.77;;
59876;SDS011;74472;51.140;17.184;2024-02-15T01:54:30;19.05;;;12.20;;
59876;SDS011;74472;51.140;17.184;2024-02-15T01:56:57;18.10;;;10.93;;
59876;SDS011;74472;51.140;17.184;2024-02-15T01:59:23;17.33;;;11.43;;
59876;SDS011;74472;51.140;17.184;2024-02-15T02:01:49;16.10;;;12.05;;
59876;SDS011;74472;51.140;17.184;2024-02-15T02:04:15;20.67;;;11.05;;
59876;SDS011;74472;51.140;17.184;2024-02-15T02:06:40;18.25;;;11.98;;
59876;SDS011;74472;51.140;17.184;2024-02-15T02:09:06;19.27;;;12.45;;
59876;SDS011;74472;51.140;17.184;2024-02-15T02:11:35;17.55;;;11.25;;
59876;SDS011;74472;51.140;17.184;2024-02-15T02:14:00;21.67;;;11.23;;
59876;SDS011;74472;51.140;17.184;2024-02-15T02:16:26;20.42;;;12.68;;
59876;SDS011;74472;51.140;17.184;2024-02-15T02:18:52;18.40;;;11.25;;
59876;SDS011;74472;51.140;17.184;2024-02-15T02:21:19;17.65;;;11.20;;
59876;SDS011;74472;51.140;17.184;2024-02-15T02:23:45;18.35;;;11.80;;
59876;SDS011;74472;51.140;17.184;2024-02-15T02:26:17;21.08;;;11.50;;
59876;SDS011;74472;51.140;17.184;2024-02-15T02:28:46;19.88;;;11.55;;
59876;SDS011;74472;51.140;17.184;2024-02-15T02:31:12;19.90;;;11.48;;
59876;SDS011;74472;51.140;17.184;2024-02-15T02:33:37;16.63;;;10.38;;
59876;SDS011;74472;51.140;17.184;2024-02-15T02:36:03;16.77;;;10.57;;
59876;SDS011;74472;51.140;17.184;2024-02-15T02:38:28;17.60;;;11.02;;
59876;SDS011;74472;51.140;17.184;2024-02-15T02:40:54;18.88;;;10.10;;
59876;SDS011;74472;51.140;17.184;2024-02-15T02:43:19;16.63;;;10.48;;
59876;SDS011;74472;51.140;17.184;2024-02-15T02:45:44;16.58;;;10.23;;
59876;SDS011;74472;51.140;17.184;2024-02-15T02:48:12;19.70;;;11.27;;
59876;SDS011;74472;51.140;17.184;2024-02-15T02:50:38;19.77;;;12.07;;
59876;SDS011;74472;51.140;17.184;2024-02-15T02:53:03;16.50;;;10.05;;
59876;SDS011;74472;51.140;17.184;2024-02-15T02:55:30;18.17;;;10.80;;
59876;SDS011;74472;51.140;17.184;2024-02-15T02:57:55;16.65;;;10.75;;
59876;SDS011;74472;51.140;17.184;2024-02-15T03:00:21;20.35;;;10.40;;
59876;SDS011;74472;51.140;17.184;2024-02-15T03:02:47;14.55;;;10.40;;
59876;SDS011;74472;51.140;17.184;2024-02-15T03:05:13;14.35;;;10.02;;
59876;SDS011;74472;51.140;17.184;2024-02-15T03:07:39;14.73;;;9.38;;
59876;SDS011;74472;51.140;17.184;2024-02-15T03:10:08;13.20;;;9.35;;
59876;SDS011;74472;51.140;17.184;2024-02-15T03:12:35;14.18;;;9.90;;
59876;SDS011;74472;51.140;17.184;2024-02-15T03:15:04;12.43;;;9.30;;
59876;SDS011;74472;51.140;17.184;2024-02-15T03:17:43;13.20;;;9.85;;
59876;SDS011;74472;51.140;17.184;2024-02-15T03:20:12;14.90;;;9.10;;
59876;SDS011;74472;51.140;17.184;2024-02-15T03:22:58;13.77;;;9.30;;
59876;SDS011;74472;51.140;17.184;2024-02-15T03:25:25;15.63;;;10.32;;
59876;SDS011;74472;51.140;17.184;2024-02-15T03:27:54;19.45;;;10.38;;
59876;SDS011;74472;51.140;17.184;2024-02-15T03:30:22;13.55;;;9.13;;
59876;SDS011;74472;51.140;17.184;2024-02-15T03:32:52;13.90;;;9.43;;
59876;SDS011;74472;51.140;17.184;2024-02-15T03:35:18;12.75;;;9.40;;
59876;SDS011;74472;51.140;17.184;2024-02-15T03:37:45;12.75;;;9.13;;
59876;SDS011;74472;51.140;17.184;2024-02-15T03:40:11;12.93;;;9.30;;
59876;SDS011;74472;51.140;17.184;2024-02-15T03:42:36;11.43;;;8.52;;
59876;SDS011;74472;51.140;17.184;2024-02-15T03:45:05;13.85;;;8.35;;
59876;SDS011;74472;51.140;17.184;2024-02-15T03:47:34;15.00;;;9.35;;
59876;SDS011;74472;51.140;17.184;2024-02-15T03:50:06;14.20;;;9.70;;
59876;SDS011;74472;51.140;17.184;2024-02-15T03:52:36;14.02;;;8.48;;
59876;SDS011;74472;51.140;17.184;2024-02-15T03:55:02;14.80;;;8.63;;
59876;SDS011;74472;51.140;17.184;2024-02-15T03:57:28;10.65;;;8.15;;
59876;SDS011;74472;51.140;17.184;2024-02-15T03:59:54;12.30;;;8.02;;
59876;SDS011;74472;51.140;17.184;2024-02-15T04:02:22;11.40;;;7.93;;
59876;SDS011;74472;51.140;17.184;2024-02-15T04:04:48;13.70;;;8.85;;
59876;SDS011;74472;51.140;17.184;2024-02-15T04:07:14;10.93;;;8.25;;
59876;SDS011;74472;51.140;17.184;2024-02-15T04:09:41;12.70;;;8.13;;
59876;SDS011;74472;51.140;17.184;2024-02-15T04:12:07;14.05;;;8.63;;
59876;SDS011;74472;51.140;17.184;2024-02-15T04:14:33;9.95;;;7.70;;
59876;SDS011;74472;51.140;17.184;2024-02-15T04:17:03;12.77;;;9.15;;
59876;SDS011;74472;51.140;17.184;2024-02-15T04:19:29;12.82;;;9.52;;
59876;SDS011;74472;51.140;17.184;2024-02-15T04:21:55;11.27;;;9.02;;
59876;SDS011;74472;51.140;17.184;2024-02-15T04:24:21;11.93;;;8.65;;
59876;SDS011;74472;51.140;17.184;2024-02-15T04:26:46;13.05;;;9.98;;
59876;SDS011;74472;51.140;17.184;2024-02-15T04:29:13;10.45;;;7.60;;
59876;SDS011;74472;51.140;17.184;2024-02-15T04:31:39;11.48;;;7.80;;
59876;SDS011;74472;51.140;17.184;2024-02-15T04:34:05;12.60;;;8.23;;
59876;SDS011;74472;51.140;17.184;2024-02-15T04:36:31;11.13;;;8.38;;
59876;SDS011;74472;51.140;17.184;2024-02-15T04:38:59;11.70;;;8.90;;
59876;SDS011;74472;51.140;17.184;2024-02-15T04:41:29;14.18;;;8.45;;
59876;SDS011;74472;51.140;17.184;2024-02-15T04:43:55;11.32;;;7.43;;
59876;SDS011;74472;51.140;17.184;2024-02-15T04:46:20;12.70;;;7.57;;
59876;SDS011;74472;51.140;17.184;2024-02-15T04:48:46;11.60;;;7.07;;
59876;SDS011;74472;51.140;17.184;2024-02-15T04:51:12;10.38;;;8.63;;
59876;SDS011;74472;51.140;17.184;2024-02-15T04:53:37;11.63;;;8.63;;
59876;SDS011;74472;51.140;17.184;2024-02-15T04:56:05;10.82;;;8.38;;
59876;SDS011;74472;51.140;17.184;2024-02-15T04:58:34;11.38;;;7.60;;
59876;SDS011;74472;51.140;17.184;2024-02-15T05:01:01;14.88;;;9.27;;
59876;SDS011;74472;51.140;17.184;2024-02-15T05:03:29;15.73;;;9.30;;
59876;SDS011;74472;51.140;17.184;2024-02-15T05:06:00;16.27;;;9.25;;
59876;SDS011;74472;51.140;17.184;2024-02-15T05:08:26;13.02;;;9.00;;
59876;SDS011;74472;51.140;17.184;2024-02-15T05:10:51;13.43;;;9.35;;
59876;SDS011;74472;51.140;17.184;2024-02-15T05:13:21;10.50;;;7.78;;
59876;SDS011;74472;51.140;17.184;2024-02-15T05:15:48;11.88;;;8.13;;
59876;SDS011;74472;51.140;17.184;2024-02-15T05:18:14;13.40;;;9.40;;
59876;SDS011;74472;51.140;17.184;2024-02-15T05:20:40;12.23;;;8.05;;
59876;SDS011;74472;51.140;17.184;2024-02-15T05:23:05;14.15;;;8.93;;
59876;SDS011;74472;51.140;17.184;2024-02-15T05:25:31;15.57;;;8.60;;
59876;SDS011;74472;51.140;17.184;2024-02-15T05:27:58;16.20;;;8.68;;
59876;SDS011;74472;51.140;17.184;2024-02-15T05:30:24;12.57;;;8.40;;
59876;SDS011;74472;51.140;17.184;2024-02-15T05:32:50;13.18;;;9.20;;
59876;SDS011;74472;51.140;17.184;2024-02-15T05:35:18;10.90;;;8.30;;
59876;SDS011;74472;51.140;17.184;2024-02-15T05:37:43;16.33;;;10.05;;
59876;SDS011;74472;51.140;17.184;2024-02-15T05:40:09;13.90;;;9.32;;
59876;SDS011;74472;51.140;17.184;2024-02-15T05:42:40;12.52;;;9.30;;
59876;SDS011;74472;51.140;17.184;2024-02-15T05:45:27;11.40;;;9.00;;
59876;SDS011;74472;51.140;17.184;2024-02-15T05:47:54;12.55;;;8.75;;
59876;SDS011;74472;51.140;17.184;2024-02-15T05:50:20;10.90;;;8.57;;
59876;SDS011;74472;51.140;17.184;2024-02-15T05:52:46;13.00;;;8.75;;
59876;SDS011;74472;51.140;17.184;2024-02-15T05:55:13;11.88;;;8.90;;
59876;SDS011;74472;51.140;17.184;2024-02-15T05:57:43;11.43;;;9.10;;
59876;SDS011;74472;51.140;17.184;2024-02-15T06:00:08;10.88;;;8.73;;
59876;SDS011;74472;51.140;17.184;2024-02-15T06:02:34;13.60;;;10.68;;
59876;SDS011;74472;51.140;17.184;2024-02-15T06:04:59;15.02;;;9.65;;
59876;SDS011;74472;51.140;17.184;2024-02-15T06:07:28;13.32;;;10.63;;
59876;SDS011;74472;51.140;17.184;2024-02-15T06:09:54;13.88;;;9.68;;
59876;SDS011;74472;51.140;17.184;2024-02-15T06:12:19;15.43;;;10.32;;
59876;SDS011;74472;51.140;17.184;2024-02-15T06:14:45;10.90;;;9.73;;
59876;SDS011;74472;51.140;17.184;2024-02-15T06:17:11;12.68;;;9.82;;
59876;SDS011;74472;51.140;17.184;2024-02-15T06:19:36;17.08;;;11.25;;
59876;SDS011;74472;51.140;17.184;2024-02-15T06:22:02;12.07;;;9.70;;
59876;SDS011;74472;51.140;17.184;2024-02-15T06:24:29;11.80;;;10.38;;
59876;SDS011;74472;51.140;17.184;2024-02-15T06:26:54;15.82;;;11.70;;
59876;SDS011;74472;51.140;17.184;2024-02-15T06:29:24;15.10;;;10.30;;
59876;SDS011;74472;51.140;17.184;2024-02-15T06:32:09;14.23;;;10.63;;
59876;SDS011;74472;51.140;17.184;2024-02-15T06:34:53;15.15;;;10.00;;
59876;SDS011;74472;51.140;17.184;2024-02-15T06:37:37;14.32;;;10.10;;
59876;SDS011;74472;51.140;17.184;2024-02-15T06:40:22;12.30;;;10.27;;
59876;SDS011;74472;51.140;17.184;2024-02-15T06:42:47;15.00;;;11.63;;
59876;SDS011;74472;51.140;17.184;2024-02-15T06:45:13;13.43;;;10.60;;
59876;SDS011;74472;51.140;17.184;2024-02-15T06:47:41;15.35;;;10.73;;
59876;SDS011;74472;51.140;17.184;2024-02-15T06:50:12;15.07;;;10.68;;
59876;SDS011;74472;51.140;17.184;2024-02-15T06:52:39;13.85;;;10.52;;
59876;SDS011;74472;51.140;17.184;2024-02-15T06:55:07;16.83;;;12.05;;
59876;SDS011;74472;51.140;17.184;2024-02-15T06:57:37;15.23;;;11.30;;
59876;SDS011;74472;51.140;17.184;2024-02-15T07:00:05;13.85;;;10.20;;
59876;SDS011;74472;51.140;17.184;2024-02-15T07:02:39;16.15;;;11.05;;
59876;SDS011;74472;51.140;17.184;2024-02-15T07:05:04;15.57;;;10.15;;
59876;SDS011;74472;51.140;17.184;2024-02-15T07:07:31;14.40;;;10.45;;
59876;SDS011;74472;51.140;17.184;2024-02-15T07:09:57;15.68;;;11.43;;
59876;SDS011;74472;51.140;17.184;2024-02-15T07:12:22;17.30;;;12.43;;
59876;SDS011;74472;51.140;17.184;2024-02-15T07:14:48;14.65;;;12.43;;
59876;SDS011;74472;51.140;17.184;2024-02-15T07:17:13;16.30;;;10.68;;
59876;SDS011;74472;51.140;17.184;2024-02-15T07:19:45;14.85;;;11.10;;
59876;SDS011;74472;51.140;17.184;2024-02-15T07:22:14;17.75;;;10.98;;
59876;SDS011;74472;51.140;17.184;2024-02-15T07:24:40;14.40;;;10.77;;
59876;SDS011;74472;51.140;17.184;2024-02-15T07:27:05;12.30;;;10.18;;
59876;SDS011;74472;51.140;17.184;2024-02-15T07:29:31;17.40;;;10.23;;
59876;SDS011;74472;51.140;17.184;2024-02-15T07:31:57;15.50;;;9.05;;
59876;SDS011;74472;51.140;17.184;2024-02-15T07:34:24;15.00;;;9.93;;
59876;SDS011;74472;51.140;17.184;2024-02-15T07:36:51;15.93;;;10.77;;
59876;SDS011;74472;51.140;17.184;2024-02-15T07:39:17;19.20;;;13.32;;
59876;SDS011;74472;51.140;17.184;2024-02-15T07:41:48;15.30;;;11.27;;
59876;SDS011;74472;51.140;17.184;2024-02-15T07:44:14;13.57;;;11.20;;
59876;SDS011;74472;51.140;17.184;2024-02-15T07:46:41;18.90;;;10.60;;
59876;SDS011;74472;51.140;17.184;2024-02-15T07:49:06;15.38;;;11.23;;
59876;SDS011;74472;51.140;17.184;2024-02-15T07:51:33;14.82;;;9.57;;
59876;SDS011;74472;51.140;17.184;2024-02-15T07:53:58;13.13;;;9.80;;
59876;SDS011;74472;51.140;17.184;2024-02-15T07:56:24;16.08;;;10.35;;
59876;SDS011;74472;51.140;17.184;2024-02-15T07:58:49;17.88;;;9.32;;
59876;SDS011;74472;51.140;17.184;2024-02-15T08:01:17;13.20;;;10.23;;
59876;SDS011;74472;51.140;17.184;2024-02-15T08:03:42;13.40;;;10.10;;
59876;SDS011;74472;51.140;17.184;2024-02-15T08:06:11;13.98;;;10.15;;
59876;SDS011;74472;51.140;17.184;2024-02-15T08:08:38;15.18;;;11.40;;
59876;SDS011;74472;51.140;17.184;2024-02-15T08:11:06;13.90;;;8.52;;
59876;SDS011;74472;51.140;17.184;2024-02-15T08:13:35;11.02;;;8.35;;
59876;SDS011;74472;51.140;17.184;2024-02-15T08:16:03;14.88;;;10.00;;
59876;SDS011;74472;51.140;17.184;2024-02-15T08:18:30;19.95;;;14.10;;
59876;SDS011;74472;51.140;17.184;2024-02-15T08:20:55;17.23;;;12.85;;
59876;SDS011;74472;51.140;17.184;2024-02-15T08:23:22;21.30;;;14.73;;
59876;SDS011;74472;51.140;17.184;2024-02-15T08:25:47;21.75;;;15.75;;
59876;SDS011;74472;51.140;17.184;2024-02-15T08:28:13;19.02;;;13.52;;
59876;SDS011;74472;51.140;17.184;2024-02-15T08:30:38;16.42;;;11.85;;
59876;SDS011;74472;51.140;17.184;2024-02-15T08:33:03;13.60;;;10.40;;
59876;SDS011;74472;51.140;17.184;2024-02-15T08:35:29;17.17;;;11.68;;
59876;SDS011;74472;51.140;17.184;2024-02-15T08:37:54;12.70;;;10.30;;
59876;SDS011;74472;51.140;17.184;2024-02-15T08:40:20;17.50;;;10.32;;
59876;SDS011;74472;51.140;17.184;2024-02-15T08:42:50;14.70;;;9.82;;
59876;SDS011;74472;51.140;17.184;2024-02-15T08:45:15;13.73;;;9.27;;
59876;SDS011;74472;51.140;17.184;2024-02-15T08:47:41;11.63;;;9.73;;
59876;SDS011;74472;51.140;17.184;2024-02-15T08:50:09;12.55;;;9.55;;
59876;SDS011;74472;51.140;17.184;2024-02-15T08:52:38;12.93;;;9.27;;
59876;SDS011;74472;51.140;17.184;2024-02-15T08:55:08;13.32;;;9.90;;
59876;SDS011;74472;51.140;17.184;2024-02-15T08:57:35;13.90;;;11.00;;
59876;SDS011;74472;51.140;17.184;2024-02-15T09:00:04;15.55;;;9.82;;
59876;SDS011;74472;51.140;17.184;2024-02-15T09:02:35;13.07;;;9.95;;
59876;SDS011;74472;51.140;17.184;2024-02-15T09:05:00;17.40;;;9.90;;
59876;SDS011;74472;51.140;17.184;2024-02-15T09:07:25;15.60;;;10.90;;
59876;SDS011;74472;51.140;17.184;2024-02-15T09:09:51;17.42;;;10.55;;
59876;SDS011;74472;51.140;17.184;2024-02-15T09:12:16;18.45;;;11.40;;
59876;SDS011;74472;51.140;17.184;2024-02-15T09:14:41;24.48;;;13.43;;
59876;SDS011;74472;51.140;17.184;2024-02-15T09:17:07;13.85;;;9.55;;
59876;SDS011;74472;51.140;17.184;2024-02-15T09:19:35;15.88;;;11.50;;
59876;SDS011;74472;51.140;17.184;2024-02-15T09:22:01;17.23;;;11.02;;
59876;SDS011;74472;51.140;17.184;2024-02-15T09:24:31;14.35;;;10.10;;
59876;SDS011;74472;51.140;17.184;2024-02-15T09:26:58;10.43;;;8.45;;
59876;SDS011;74472;51.140;17.184;2024-02-15T09:29:26;12.00;;;9.10;;
59876;SDS011;74472;51.140;17.184;2024-02-15T09:31:52;13.27;;;8.65;;
59876;SDS011;74472;51.140;17.184;2024-02-15T09:34:17;14.70;;;10.38;;
59876;SDS011;74472;51.140;17.184;2024-02-15T09:36:43;15.40;;;11.80;;
59876;SDS011;74472;51.140;17.184;2024-02-15T09:39:08;15.50;;;10.43;;
59876;SDS011;74472;51.140;17.184;2024-02-15T09:41:34;11.43;;;8.45;;
59876;SDS011;74472;51.140;17.184;2024-02-15T09:43:59;13.07;;;8.90;;
59876;SDS011;74472;51.140;17.184;2024-02-15T09:46:26;12.55;;;9.10;;
59876;SDS011;74472;51.140;17.184;2024-02-15T09:48:51;12.70;;;8.35;;
59876;SDS011;74472;51.140;17.184;2024-02-15T09:51:23;12.60;;;8.88;;
59876;SDS011;74472;51.140;17.184;2024-02-15T09:53:51;14.23;;;9.43;;
59876;SDS011;74472;51.140;17.184;2024-02-15T09:56:16;12.50;;;8.88;;
59876;SDS011;74472;51.140;17.184;2024-02-15T09:58:43;13.07;;;10.07;;
59876;SDS011;74472;51.140;17.184;2024-02-15T10:01:09;12.43;;;9.25;;
59876;SDS011;74472;51.140;17.184;2024-02-15T10:03:37;14.73;;;10.05;;
59876;SDS011;74472;51.140;17.184;2024-02-15T10:06:05;16.67;;;9.18;;
59876;SDS011;74472;51.140;17.184;2024-02-15T10:08:31;14.48;;;10.95;;
59876;SDS011;74472;51.140;17.184;2024-02-15T10:11:08;14.00;;;10.27;;
59876;SDS011;74472;51.140;17.184;2024-02-15T10:13:34;13.23;;;9.57;;
59876;SDS011;74472;51.140;17.184;2024-02-15T10:16:22;15.23;;;9.65;;
59876;SDS011;74472;51.140;17.184;2024-02-15T10:18:50;13.98;;;10.27;;
59876;SDS011;74472;51.140;17.184;2024-02-15T10:21:37;11.93;;;9.25;;
59876;SDS011;74472;51.140;17.184;2024-02-15T10:24:04;13.82;;;9.40;;
59876;SDS011;74472;51.140;17.184;2024-02-15T10:26:30;17.52;;;11.25;;
59876;SDS011;74472;51.140;17.184;2024-02-15T10:29:06;13.95;;;9.98;;
59876;SDS011;74472;51.140;17.184;2024-02-15T10:31:39;17.88;;;11.65;;
59876;SDS011;74472;51.140;17.184;2024-02-15T10:34:07;15.25;;;11.65;;
59876;SDS011;74472;51.140;17.184;2024-02-15T10:36:33;14.18;;;10.18;;
59876;SDS011;74472;51.140;17.184;2024-02-15T10:39:15;14.98;;;9.80;;
59876;SDS011;74472;51.140;17.184;2024-02-15T10:41:44;16.65;;;12.13;;
59876;SDS011;74472;51.140;17.184;2024-02-15T10:44:20;13.68;;;8.77;;
59876;SDS011;74472;51.140;17.184;2024-02-15T10:46:49;11.77;;;8.63;;
59876;SDS011;74472;51.140;17.184;2024-02-15T10:51:44;16.48;;;10.52;;
59876;SDS011;74472;51.140;17.184;2024-02-15T10:54:14;12.57;;;9.40;;
59876;SDS011;74472;51.140;17.184;2024-02-15T10:56:50;11.70;;;8.35;;
59876;SDS011;74472;51.140;17.184;2024-02-15T10:59:21;13.75;;;8.68;;
59876;SDS011;74472;51.140;17.184;2024-02-15T11:04:23;9.95;;;6.82;;
59876;SDS011;74472;51.140;17.184;2024-02-15T11:06:57;8.23;;;7.38;;
59876;SDS011;74472;51.140;17.184;2024-02-15T11:09:23;11.57;;;8.30;;
59876;SDS011;74472;51.140;17.184;2024-02-15T11:11:52;10.23;;;7.75;;
59876;SDS011;74472;51.140;17.184;2024-02-15T11:14:28;9.93;;;7.65;;
59876;SDS011;74472;51.140;17.184;2024-02-15T11:16:54;12.00;;;7.68;;
59876;SDS011;74472;51.140;17.184;2024-02-15T11:22:07;12.60;;;7.65;;
59876;SDS011;74472;51.140;17.184;2024-02-15T11:24:35;12.40;;;8.85;;
59876;SDS011;74472;51.140;17.184;2024-02-15T11:27:02;11.85;;;7.18;;
59876;SDS011;74472;51.140;17.184;2024-02-15T11:35:08;13.48;;;7.72;;
59876;SDS011;74472;51.140;17.184;2024-02-15T11:40:13;10.30;;;6.75;;
59876;SDS011;74472;51.140;17.184;2024-02-15T11:42:43;29.13;;;17.45;;
59876;SDS011;74472;51.140;17.184;2024-02-15T11:45:12;48.92;;;27.50;;
59876;SDS011;74472;51.140;17.184;2024-02-15T11:47:41;47.72;;;26.63;;
59876;SDS011;74472;51.140;17.184;2024-02-15T11:50:07;44.28;;;24.20;;
59876;SDS011;74472;51.140;17.184;2024-02-15T11:52:40;58.55;;;32.58;;
59876;SDS011;74472;51.140;17.184;2024-02-15T11:55:13;14.15;;;8.35;;
59876;SDS011;74472;51.140;17.184;2024-02-15T11:57:44;11.98;;;9.10;;
59876;SDS011;74472;51.140;17.184;2024-02-15T12:00:26;16.52;;;8.43;;
59876;SDS011;74472;51.140;17.184;2024-02-15T12:03:10;8.23;;;6.65;;
59876;SDS011;74472;51.140;17.184;2024-02-15T12:05:54;10.90;;;6.55;;
59876;SDS011;74472;51.140;17.184;2024-02-15T12:08:38;7.15;;;5.57;;
59876;SDS011;74472;51.140;17.184;2024-02-15T12:11:22;7.60;;;5.75;;
59876;SDS011;74472;51.140;17.184;2024-02-15T12:14:06;7.30;;;4.90;;
59876;SDS011;74472;51.140;17.184;2024-02-15T12:17:00;8.95;;;5.85;;
59876;SDS011;74472;51.140;17.184;2024-02-15T12:19:43;8.48;;;5.70;;
59876;SDS011;74472;51.140;17.184;2024-02-15T12:22:09;10.30;;;6.35;;
59876;SDS011;74472;51.140;17.184;2024-02-15T12:24:35;8.60;;;6.05;;
59876;SDS011;74472;51.140;17.184;2024-02-15T12:27:00;8.73;;;5.15;;
59876;SDS011;74472;51.140;17.184;2024-02-15T12:29:30;11.35;;;7.72;;
59876;SDS011;74472;51.140;17.184;2024-02-15T12:31:57;9.82;;;6.03;;
59876;SDS011;74472;51.140;17.184;2024-02-15T12:34:23;7.32;;;5.18;;
59876;SDS011;74472;51.140;17.184;2024-02-15T12:36:49;10.82;;;5.20;;
59876;SDS011;74472;51.140;17.184;2024-02-15T12:39:15;7.18;;;5.47;;
59876;SDS011;74472;51.140;17.184;2024-02-15T12:41:50;9.40;;;6.93;;
59876;SDS011;74472;51.140;17.184;2024-02-15T12:44:16;6.40;;;4.72;;
59876;SDS011;74472;51.140;17.184;2024-02-15T12:46:42;5.93;;;4.25;;
59876;SDS011;74472;51.140;17.184;2024-02-15T12:51:40;6.78;;;3.50;;
59876;SDS011;74472;51.140;17.184;2024-02-15T12:54:22;6.25;;;3.53;;
59876;SDS011;74472;51.140;17.184;2024-02-15T12:56:48;5.80;;;3.85;;
59876;SDS011;74472;51.140;17.184;2024-02-15T12:59:14;7.25;;;3.65;;
59876;SDS011;74472;51.140;17.184;2024-02-15T13:01:39;3.83;;;2.83;;
59876;SDS011;74472;51.140;17.184;2024-02-15T13:04:05;3.83;;;2.47;;
59876;SDS011;74472;51.140;17.184;2024-02-15T13:06:31;3.88;;;2.22;;
59876;SDS011;74472;51.140;17.184;2024-02-15T13:09:00;3.85;;;2.35;;
59876;SDS011;74472;51.140;17.184;2024-02-15T13:11:27;4.53;;;2.30;;
59876;SDS011;74472;51.140;17.184;2024-02-15T13:13:52;3.22;;;1.90;;
59876;SDS011;74472;51.140;17.184;2024-02-15T13:16:19;7.05;;;3.33;;
59876;SDS011;74472;51.140;17.184;2024-02-15T13:18:45;4.63;;;3.20;;
59876;SDS011;74472;51.140;17.184;2024-02-15T13:21:12;4.95;;;3.58;;
59876;SDS011;74472;51.140;17.184;2024-02-15T13:23:37;4.82;;;3.55;;
59876;SDS011;74472;51.140;17.184;2024-02-15T13:26:02;6.55;;;3.65;;
59876;SDS011;74472;51.140;17.184;2024-02-15T13:28:29;7.68;;;4.43;;
59876;SDS011;74472;51.140;17.184;2024-02-15T13:30:55;8.40;;;5.22;;
59876;SDS011;74472;51.140;17.184;2024-02-15T13:33:21;5.43;;;4.40;;
59876;SDS011;74472;51.140;17.184;2024-02-15T13:35:47;7.97;;;4.15;;
59876;SDS011;74472;51.140;17.184;2024-02-15T13:38:15;6.82;;;5.32;;
59876;SDS011;74472;51.140;17.184;2024-02-15T13:40:47;17.90;;;11.80;;
59876;SDS011;74472;51.140;17.184;2024-02-15T13:43:17;10.35;;;6.97;;
59876;SDS011;74472;51.140;17.184;2024-02-15T13:45:43;9.45;;;6.70;;
59876;SDS011;74472;51.140;17.184;2024-02-15T13:48:09;8.57;;;6.70;;
59876;SDS011;74472;51.140;17.184;2024-02-15T13:50:38;13.77;;;7.10;;
59876;SDS011;74472;51.140;17.184;2024-02-15T13:53:04;12.95;;;8.02;;
59876;SDS011;74472;51.140;17.184;2024-02-15T13:55:30;10.52;;;7.85;;
59876;SDS011;74472;51.140;17.184;2024-02-15T13:57:55;11.95;;;8.88;;
59876;SDS011;74472;51.140;17.184;2024-02-15T14:00:22;11.40;;;7.55;;
59876;SDS011;74472;51.140;17.184;2024-02-15T14:02:51;11.18;;;7.38;;
59876;SDS011;74472;51.140;17.184;2024-02-15T14:05:18;10.55;;;6.57;;
59876;SDS011;74472;51.140;17.184;2024-02-15T14:07:51;11.52;;;8.25;;
59876;SDS011;74472;51.140;17.184;2024-02-15T14:10:21;11.07;;;8.82;;
59876;SDS011;74472;51.140;17.184;2024-02-15T14:12:47;12.27;;;8.55;;
59876;SDS011;74472;51.140;17.184;2024-02-15T14:15:14;10.30;;;7.53;;
59876;SDS011;74472;51.140;17.184;2024-02-15T14:17:40;9.35;;;6.85;;
59876;SDS011;74472;51.140;17.184;2024-02-15T14:20:06;13.40;;;8.90;;
59876;SDS011;74472;51.140;17.184;2024-02-15T14:22:34;11.30;;;8.10;;
59876;SDS011;74472;51.140;17.184;2024-02-15T14:24:59;9.63;;;7.97;;
59876;SDS011;74472;51.140;17.184;2024-02-15T14:27:25;8.60;;;6.82;;
59876;SDS011;74472;51.140;17.184;2024-02-15T14:29:50;16.40;;;9.13;;
59876;SDS011;74472;51.140;17.184;2024-02-15T14:32:34;12.18;;;8.35;;
59876;SDS011;74472;51.140;17.184;2024-02-15T14:35:18;11.80;;;7.70;;
59876;SDS011;74472;51.140;17.184;2024-02-15T14:37:45;6.85;;;4.68;;
59876;SDS011;74472;51.140;17.184;2024-02-15T14:40:11;6.68;;;4.90;;